Time;durP1;ratioP1;P1;durP2;ratioP2;P2;SDS_P1;SDS_P2;PMS_P1;PMS_P2;Temp;Humidity;BMP_temperature;BMP_pressure;BME280_temperature;BME280_humidity;BME280_pressure;Samples;Min_cycle;Max_cycle;Signal;HPM_P1;HPM_P2
2022/02/15 00:00:34;;;;;;;37.75;26.10;;;7.20;99.90;;;;;;5088510;28;20230;-88
2022/02/15 00:02:59;;;;;;;44.78;27.10;;;7.20;99.90;;;;;;5109943;28;20200;-88
2022/02/15 00:05:25;;;;;;;39.03;24.00;;;7.20;99.90;;;;;;5094545;28;20172;-89
2022/02/15 00:07:51;;;;;;;34.90;24.42;;;7.20;99.90;;;;;;5076559;28;20531;-92
2022/02/15 00:10:17;;;;;;;36.50;23.83;;;7.20;99.90;;;;;;5093214;28;20270;-88
2022/02/15 00:12:43;;;;;;;39.58;24.70;;;7.20;99.90;;;;;;5093953;28;20597;-87
2022/02/15 00:15:10;;;;;;;36.27;26.50;;;7.10;99.90;;;;;;5093355;28;20168;-87
2022/02/15 00:17:37;;;;;;;35.22;25.50;;;7.10;99.90;;;;;;5095227;28;21017;-91
2022/02/15 00:20:04;;;;;;;33.83;25.10;;;7.00;99.90;;;;;;5094709;28;20172;-88
2022/02/15 00:22:31;;;;;;;39.40;24.60;;;7.00;99.90;;;;;;5076228;28;20577;-88
2022/02/15 00:24:57;;;;;;;33.08;22.63;;;7.00;99.90;;;;;;5076415;28;20188;-90
2022/02/15 00:27:22;;;;;;;36.35;22.92;;;7.00;99.90;;;;;;5076465;28;20257;-88
2022/02/15 00:29:48;;;;;;;36.87;23.27;;;6.90;99.90;;;;;;5093134;28;20168;-91
2022/02/15 00:32:14;;;;;;;34.57;22.73;;;6.90;99.90;;;;;;5106565;28;20216;-91
2022/02/15 00:34:40;;;;;;;33.40;22.58;;;6.90;99.90;;;;;;5096142;28;20168;-88
2022/02/15 00:37:06;;;;;;;37.27;24.50;;;6.90;99.90;;;;;;5103524;28;20198;-88
2022/02/15 00:39:31;;;;;;;38.57;25.20;;;6.90;99.90;;;;;;5101032;28;20500;-89
2022/02/15 00:41:57;;;;;;;36.57;23.03;;;6.80;99.90;;;;;;5093723;28;20235;-91
2022/02/15 00:44:23;;;;;;;35.70;24.43;;;6.80;99.90;;;;;;5093859;28;20207;-87
2022/02/15 00:46:49;;;;;;;34.70;24.10;;;6.90;99.90;;;;;;5093155;28;20938;-88
2022/02/15 00:49:15;;;;;;;32.33;24.90;;;6.80;99.90;;;;;;5094689;28;20173;-90
2022/02/15 00:51:40;;;;;;;39.13;24.93;;;6.90;99.90;;;;;;5095305;28;20226;-88
2022/02/15 00:54:06;;;;;;;40.43;24.73;;;6.90;99.90;;;;;;5097593;28;20254;-89
2022/02/15 00:56:32;;;;;;;36.73;24.53;;;6.90;99.90;;;;;;5098390;28;20188;-87
2022/02/15 00:58:58;;;;;;;41.97;26.93;;;6.80;99.90;;;;;;5097953;28;20223;-88
2022/02/15 01:01:23;;;;;;;40.90;25.73;;;6.80;99.90;;;;;;5097717;28;20172;-91
2022/02/15 01:03:49;;;;;;;36.67;24.97;;;6.80;99.90;;;;;;5100361;28;20196;-89
2022/02/15 01:06:15;;;;;;;34.57;24.50;;;6.80;99.90;;;;;;5098930;28;20180;-88
2022/02/15 01:08:42;;;;;;;37.00;23.97;;;6.80;99.90;;;;;;5099457;28;20505;-90
2022/02/15 01:11:12;;;;;;;40.50;25.15;;;6.70;99.90;;;;;;5099289;28;20459;-91
2022/02/15 01:13:38;;;;;;;36.60;24.02;;;6.70;99.90;;;;;;5093591;28;20281;-90
2022/02/15 01:16:05;;;;;;;40.20;24.00;;;6.70;99.90;;;;;;5101197;28;20168;-88
2022/02/15 01:18:31;;;;;;;39.17;24.10;;;6.70;99.90;;;;;;5116510;28;20435;-91
2022/02/15 01:20:57;;;;;;;39.08;24.27;;;6.60;99.90;;;;;;5113313;28;20189;-90
2022/02/15 01:23:23;;;;;;;35.10;21.40;;;6.70;99.90;;;;;;5097703;28;20206;-88
2022/02/15 01:25:49;;;;;;;34.23;23.27;;;6.60;99.90;;;;;;5113373;28;20181;-89
2022/02/15 01:28:16;;;;;;;37.63;23.60;;;6.60;99.90;;;;;;5097663;28;20192;-88
2022/02/15 01:30:41;;;;;;;32.72;23.35;;;6.60;99.90;;;;;;5097191;28;20177;-87
2022/02/15 01:33:07;;;;;;;39.47;22.13;;;6.60;99.90;;;;;;5097412;28;20249;-88
2022/02/15 01:35:33;;;;;;;36.43;24.30;;;6.50;99.90;;;;;;5096024;28;20654;-89
2022/02/15 01:37:59;;;;;;;40.30;25.20;;;6.50;99.90;;;;;;5097650;28;20201;-91
2022/02/15 01:40:24;;;;;;;35.17;24.33;;;6.50;99.90;;;;;;5096150;28;20184;-88
2022/02/15 01:42:50;;;;;;;38.83;24.80;;;6.50;99.90;;;;;;5096220;28;20573;-89
2022/02/15 01:45:18;;;;;;;34.90;23.03;;;6.40;99.90;;;;;;5098170;28;20176;-89
2022/02/15 01:47:44;;;;;;;38.13;22.75;;;6.40;99.90;;;;;;5097755;28;20200;-88
2022/02/15 01:50:11;;;;;;;33.38;21.52;;;6.40;99.90;;;;;;5096004;28;20720;-89
2022/02/15 01:52:38;;;;;;;39.50;25.05;;;6.40;99.90;;;;;;5096956;28;20697;-91
2022/02/15 01:55:06;;;;;;;37.67;24.85;;;6.40;99.90;;;;;;5109562;28;20181;-88
2022/02/15 01:57:32;;;;;;;34.50;21.50;;;6.40;99.90;;;;;;5097328;28;20669;-91
2022/02/15 01:59:58;;;;;;;32.50;22.80;;;6.40;99.90;;;;;;5096556;28;20180;-88
2022/02/15 02:02:28;;;;;;;41.25;25.17;;;6.40;99.90;;;;;;5095965;28;20420;-88
2022/02/15 02:07:39;;;;;;;37.85;22.58;;;6.40;99.90;;;;;;5099066;28;20672;-91
2022/02/15 02:10:06;;;;;;;36.40;24.13;;;6.40;99.90;;;;;;5098077;28;20246;-89
2022/02/15 02:12:32;;;;;;;35.45;23.15;;;6.40;99.90;;;;;;5098248;28;20228;-90
2022/02/15 02:15:14;;;;;;;37.67;24.20;;;6.50;99.90;;;;;;5098289;28;20263;-91
2022/02/15 02:17:39;;;;;;;35.30;22.95;;;6.50;99.90;;;;;;5079669;28;20200;-91
2022/02/15 02:20:06;;;;;;;34.20;22.60;;;6.50;99.90;;;;;;5098033;28;20176;-89
2022/02/15 02:22:32;;;;;;;34.15;24.60;;;6.40;99.90;;;;;;5079768;28;20236;-91
2022/02/15 02:24:58;;;;;;;32.25;23.23;;;6.40;99.90;;;;;;5098670;28;20164;-90
2022/02/15 02:27:27;;;;;;;38.88;25.23;;;6.40;99.90;;;;;;5097661;28;20684;-91
2022/02/15 02:29:54;;;;;;;34.95;23.00;;;6.40;99.90;;;;;;5080525;28;20180;-87
2022/02/15 02:32:28;;;;;;;33.63;22.85;;;6.40;99.90;;;;;;5080464;28;20273;-88
2022/02/15 02:34:54;;;;;;;37.70;23.92;;;6.40;99.90;;;;;;5080671;28;20181;-88
2022/02/15 02:37:20;;;;;;;35.60;22.02;;;6.40;99.90;;;;;;5080197;28;20232;-88
2022/02/15 02:39:48;;;;;;;41.90;25.33;;;6.40;99.90;;;;;;5099087;28;20168;-88
2022/02/15 02:42:17;;;;;;;37.70;23.13;;;6.40;99.90;;;;;;5080753;28;20207;-92
2022/02/15 02:44:44;;;;;;;33.38;22.80;;;6.40;99.90;;;;;;5098496;28;20234;-91
2022/02/15 02:47:09;;;;;;;34.15;23.88;;;6.30;99.90;;;;;;5080782;28;20207;-87
2022/02/15 02:49:35;;;;;;;32.27;22.50;;;6.30;99.90;;;;;;5096925;28;20180;-91
2022/02/15 02:52:01;;;;;;;37.78;24.05;;;6.30;99.90;;;;;;5088018;28;20181;-90
2022/02/15 02:54:27;;;;;;;34.60;23.40;;;6.20;99.90;;;;;;5114344;28;20194;-88
2022/02/15 02:56:54;;;;;;;34.38;24.40;;;6.20;99.90;;;;;;5095343;28;20410;-91
2022/02/15 02:59:20;;;;;;;33.47;24.13;;;6.30;99.90;;;;;;5077552;28;20173;-91
2022/02/15 03:01:46;;;;;;;29.75;22.63;;;6.20;99.90;;;;;;5077798;28;20188;-88
2022/02/15 03:04:14;;;;;;;34.20;22.35;;;6.20;99.90;;;;;;5099986;28;20621;-91
2022/02/15 03:06:39;;;;;;;35.10;23.50;;;6.20;99.90;;;;;;5078178;28;20192;-88
2022/02/15 03:09:06;;;;;;;34.20;23.00;;;6.20;99.90;;;;;;5094156;28;20565;-88
2022/02/15 03:11:32;;;;;;;35.00;21.90;;;6.20;99.90;;;;;;5094604;28;20191;-91
2022/02/15 03:13:59;;;;;;;33.17;20.63;;;6.20;99.90;;;;;;5094906;28;20232;-90
2022/02/15 03:16:25;;;;;;;34.47;24.48;;;6.20;99.90;;;;;;5095187;28;20172;-89
2022/02/15 03:18:50;;;;;;;34.93;22.97;;;6.20;99.90;;;;;;5096005;28;20562;-88
2022/02/15 03:21:16;;;;;;;30.77;21.50;;;6.20;99.90;;;;;;5077371;28;20400;-88
2022/02/15 03:23:42;;;;;;;34.07;21.97;;;6.20;99.90;;;;;;5093993;28;20514;-91
2022/02/15 03:26:08;;;;;;;32.40;23.10;;;6.10;99.90;;;;;;5095225;28;20613;-91
2022/02/15 03:28:35;;;;;;;37.57;24.20;;;6.10;99.90;;;;;;5077752;28;20232;-88
2022/02/15 03:31:01;;;;;;;32.80;22.35;;;6.10;99.90;;;;;;5095304;28;20912;-90
2022/02/15 03:33:27;;;;;;;36.22;23.35;;;6.10;99.90;;;;;;5095859;28;20629;-88
2022/02/15 03:35:53;;;;;;;36.20;23.63;;;6.10;99.90;;;;;;5078576;28;20200;-88
2022/02/15 03:38:18;;;;;;;29.70;21.40;;;6.00;99.90;;;;;;5095034;28;20219;-90
2022/02/15 03:43:28;;;;;;;37.72;22.55;;;6.00;99.90;;;;;;5104844;28;20462;-91
2022/02/15 03:45:54;;;;;;;38.57;25.80;;;5.90;99.90;;;;;;5099253;28;20200;-88
2022/02/15 03:48:20;;;;;;;41.33;21.97;;;5.90;99.90;;;;;;5098590;28;20200;-91
2022/02/15 03:50:46;;;;;;;33.10;21.10;;;5.90;99.90;;;;;;5104189;28;20233;-88
2022/02/15 03:53:12;;;;;;;33.80;21.60;;;5.90;99.90;;;;;;5103731;28;20307;-91
2022/02/15 03:55:38;;;;;;;33.13;22.40;;;5.80;99.90;;;;;;5095753;28;20395;-90
2022/02/15 03:58:05;;;;;;;32.70;22.80;;;5.80;99.90;;;;;;5103109;28;20204;-89
2022/02/15 04:00:30;;;;;;;31.35;21.60;;;5.80;99.90;;;;;;5102104;28;20392;-90
2022/02/15 04:02:56;;;;;;;38.17;23.90;;;5.80;99.90;;;;;;5095442;28;20353;-88
2022/02/15 04:05:23;;;;;;;36.53;23.33;;;5.80;99.90;;;;;;5095706;28;20538;-90
2022/02/15 04:07:49;;;;;;;34.55;22.08;;;5.80;99.90;;;;;;5098538;28;20435;-90
2022/02/15 04:10:17;;;;;;;34.13;23.50;;;5.80;99.90;;;;;;5102537;28;20225;-88
2022/02/15 04:12:43;;;;;;;35.53;23.05;;;5.80;99.90;;;;;;5080572;28;20467;-88
2022/02/15 04:15:09;;;;;;;33.10;23.38;;;5.70;99.90;;;;;;5097128;28;20232;-91
2022/02/15 04:17:34;;;;;;;36.45;24.45;;;5.70;99.90;;;;;;5100649;28;20250;-91
2022/02/15 04:20:00;;;;;;;42.43;26.83;;;5.70;99.90;;;;;;5112938;28;20177;-90
2022/02/15 04:22:26;;;;;;;46.17;25.30;;;5.70;99.90;;;;;;5112356;28;20228;-87
2022/02/15 04:24:52;;;;;;;47.60;28.33;;;5.60;99.90;;;;;;5112158;28;20187;-90
2022/02/15 04:27:18;;;;;;;50.53;28.87;;;5.60;99.90;;;;;;5096723;28;20201;-91
2022/02/15 04:29:43;;;;;;;45.70;26.30;;;5.60;99.90;;;;;;5117273;28;20180;-87
2022/02/15 04:32:10;;;;;;;48.90;27.30;;;5.50;99.90;;;;;;5101562;28;20444;-88
2022/02/15 04:34:36;;;;;;;45.97;26.02;;;5.50;99.90;;;;;;5098397;28;20173;-89
2022/02/15 04:37:02;;;;;;;44.37;26.40;;;5.50;99.90;;;;;;5098335;28;20657;-89
2022/02/15 04:39:27;;;;;;;47.70;25.87;;;5.50;99.90;;;;;;5098926;28;20175;-91
2022/02/15 04:41:53;;;;;;;45.83;27.00;;;5.50;99.90;;;;;;5098356;28;20247;-89
2022/02/15 04:44:19;;;;;;;38.00;24.80;;;5.50;99.90;;;;;;5097243;28;20432;-88
2022/02/15 04:46:45;;;;;;;39.23;25.63;;;5.50;99.90;;;;;;5098302;28;20164;-88
2022/02/15 04:49:10;;;;;;;36.30;22.90;;;5.50;99.90;;;;;;5097290;28;20584;-87
2022/02/15 04:51:36;;;;;;;41.87;26.30;;;5.50;99.90;;;;;;5098307;28;20186;-90
2022/02/15 04:54:02;;;;;;;44.57;27.07;;;5.50;99.90;;;;;;5098359;28;20255;-91
2022/02/15 04:56:28;;;;;;;43.22;25.05;;;5.50;99.90;;;;;;5103176;28;20181;-91
2022/02/15 04:58:54;;;;;;;41.70;24.70;;;5.50;99.90;;;;;;5114335;28;20536;-88
2022/02/15 05:01:21;;;;;;;38.70;24.63;;;5.50;99.90;;;;;;5095882;28;20417;-91
2022/02/15 05:03:46;;;;;;;37.17;24.63;;;5.50;99.90;;;;;;5095090;28;20698;-88
2022/02/15 05:06:12;;;;;;;35.60;23.60;;;5.50;99.90;;;;;;5095685;28;20278;-89
2022/02/15 05:08:38;;;;;;;34.27;23.70;;;5.50;99.90;;;;;;5090486;28;20201;-88
2022/02/15 05:11:03;;;;;;;33.63;23.03;;;5.50;99.90;;;;;;5097042;28;20255;-87
2022/02/15 05:13:29;;;;;;;33.70;22.90;;;5.40;99.90;;;;;;5080747;28;20236;-91
2022/02/15 05:15:55;;;;;;;30.17;20.67;;;5.40;99.90;;;;;;5083879;28;20376;-90
2022/02/15 05:18:21;;;;;;;30.50;21.67;;;5.40;99.90;;;;;;5059912;28;20208;-88
2022/02/15 05:20:46;;;;;;;34.10;21.43;;;5.40;99.90;;;;;;5082830;28;20252;-90
2022/02/15 05:23:12;;;;;;;34.17;22.97;;;5.40;99.90;;;;;;5066929;28;20432;-91
2022/02/15 05:25:39;;;;;;;34.05;21.02;;;5.40;99.90;;;;;;5097053;28;20176;-88
2022/02/15 05:28:04;;;;;;;33.50;21.65;;;5.40;99.90;;;;;;5069568;28;20232;-88
2022/02/15 05:30:30;;;;;;;31.00;22.33;;;5.40;99.90;;;;;;5078390;28;20676;-88
2022/02/15 05:32:56;;;;;;;33.30;21.83;;;5.40;99.90;;;;;;5090964;28;20231;-88
2022/02/15 05:35:23;;;;;;;33.60;21.75;;;5.40;99.90;;;;;;5096103;28;20391;-91
2022/02/15 05:37:49;;;;;;;32.78;22.08;;;5.30;99.90;;;;;;5077913;28;20569;-91
2022/02/15 05:40:15;;;;;;;32.50;22.10;;;5.30;99.90;;;;;;5070199;28;20585;-89
2022/02/15 05:42:42;;;;;;;32.47;23.13;;;5.30;99.90;;;;;;5075688;28;20239;-91
2022/02/15 05:45:09;;;;;;;33.92;22.60;;;5.30;99.90;;;;;;5095829;28;20652;-91
2022/02/15 05:47:35;;;;;;;37.10;22.92;;;5.20;99.90;;;;;;5061152;28;20262;-91
2022/02/15 05:52:45;;;;;;;34.53;21.50;;;5.30;99.90;;;;;;5088950;28;20538;-88
2022/02/15 05:55:11;;;;;;;33.40;23.00;;;5.30;99.90;;;;;;5064199;28;20216;-91
2022/02/15 05:57:36;;;;;;;38.30;22.43;;;5.30;99.90;;;;;;5062009;28;20205;-89
2022/02/15 06:00:04;;;;;;;28.33;20.20;;;5.20;99.90;;;;;;5058586;28;20267;-88
2022/02/15 06:02:30;;;;;;;38.10;22.48;;;5.20;99.90;;;;;;5058768;28;20197;-91
2022/02/15 06:04:56;;;;;;;33.20;22.20;;;5.20;99.90;;;;;;5055830;28;20551;-90
2022/02/15 06:07:22;;;;;;;35.00;22.43;;;5.20;99.90;;;;;;5058388;28;20212;-91
2022/02/15 06:09:47;;;;;;;36.83;21.93;;;5.20;99.90;;;;;;5075631;28;20173;-90
2022/02/15 06:12:13;;;;;;;33.23;22.93;;;5.30;99.90;;;;;;5062120;28;20255;-89
2022/02/15 06:14:39;;;;;;;35.47;23.73;;;5.20;99.90;;;;;;5085066;28;20185;-88
2022/02/15 06:17:05;;;;;;;34.40;21.47;;;5.20;99.90;;;;;;5098193;28;20429;-91
2022/02/15 06:19:31;;;;;;;35.60;22.80;;;5.20;99.90;;;;;;5098309;28;20459;-88
2022/02/15 06:21:56;;;;;;;39.00;24.07;;;5.20;99.90;;;;;;5080864;28;20271;-90
2022/02/15 06:24:24;;;;;;;37.80;24.53;;;5.20;99.90;;;;;;5080512;28;20411;-91
2022/02/15 06:26:50;;;;;;;43.90;26.52;;;5.10;99.90;;;;;;5080412;28;20575;-89
2022/02/15 06:29:16;;;;;;;39.65;26.10;;;5.10;99.90;;;;;;5079420;28;20180;-88
2022/02/15 06:31:42;;;;;;;38.27;26.30;;;5.10;99.90;;;;;;5098717;28;20229;-89
2022/02/15 06:34:08;;;;;;;35.00;24.57;;;5.10;99.90;;;;;;5092559;28;20523;-90
2022/02/15 06:36:34;;;;;;;35.87;26.13;;;5.10;99.90;;;;;;5098245;28;20256;-88
2022/02/15 06:39:01;;;;;;;39.45;24.80;;;5.10;99.90;;;;;;5079560;28;20208;-89
2022/02/15 06:41:27;;;;;;;36.22;24.20;;;5.10;99.90;;;;;;5079497;28;20268;-89
2022/02/15 06:43:52;;;;;;;39.10;24.10;;;5.10;99.90;;;;;;5078871;28;20236;-88
2022/02/15 06:46:18;;;;;;;41.87;24.97;;;5.20;99.90;;;;;;5078155;28;20395;-89
2022/02/15 06:48:44;;;;;;;43.40;26.70;;;5.20;99.90;;;;;;5094196;28;20211;-89
2022/02/15 06:51:11;;;;;;;41.73;23.73;;;5.20;99.90;;;;;;5076992;28;20796;-88
2022/02/15 06:53:36;;;;;;;34.83;22.95;;;5.30;99.90;;;;;;5090657;28;20224;-90
2022/02/15 06:56:05;;;;;;;35.63;22.00;;;5.30;99.90;;;;;;5070786;28;20192;-88
2022/02/15 06:58:31;;;;;;;36.85;23.35;;;5.30;99.90;;;;;;5114693;28;20677;-88
2022/02/15 07:00:57;;;;;;;36.30;23.50;;;5.40;99.90;;;;;;5092766;28;20173;-88
2022/02/15 07:03:22;;;;;;;34.23;23.00;;;5.40;99.90;;;;;;5086983;28;20457;-88
2022/02/15 07:05:48;;;;;;;39.63;21.80;;;5.40;99.90;;;;;;5091859;28;20491;-87
2022/02/15 07:08:14;;;;;;;34.73;24.00;;;5.40;99.90;;;;;;5090771;28;20676;-88
2022/02/15 07:10:39;;;;;;;35.00;22.63;;;5.50;99.90;;;;;;5075157;28;20269;-88
2022/02/15 07:13:06;;;;;;;50.40;26.40;;;5.50;99.90;;;;;;5074843;28;20240;-91
2022/02/15 07:15:31;;;;;;;54.10;28.25;;;5.50;99.90;;;;;;5085359;28;20236;-90
2022/02/15 07:17:57;;;;;;;42.07;27.10;;;5.50;99.90;;;;;;5101231;28;20200;-89
2022/02/15 07:20:23;;;;;;;41.20;25.85;;;5.50;99.90;;;;;;5096857;28;20255;-88
2022/02/15 07:22:49;;;;;;;41.17;26.13;;;5.50;99.90;;;;;;5076241;28;20281;-88
2022/02/15 07:25:14;;;;;;;34.77;24.43;;;5.60;99.90;;;;;;5076005;28;20553;-86
2022/02/15 07:27:40;;;;;;;37.00;25.10;;;5.70;99.90;;;;;;5076104;28;20200;-91
2022/02/15 07:30:07;;;;;;;37.15;25.02;;;5.80;99.90;;;;;;5095956;28;20206;-91
2022/02/15 07:32:33;;;;;;;33.33;20.17;;;6.00;99.90;;;;;;5076513;28;20234;-88
2022/02/15 07:34:59;;;;;;;30.95;22.33;;;6.10;99.90;;;;;;5096477;28;20199;-88
2022/02/15 07:37:26;;;;;;;35.90;22.27;;;6.30;99.90;;;;;;5095437;28;20216;-88
2022/02/15 07:39:52;;;;;;;34.33;22.05;;;6.60;99.90;;;;;;5094551;28;20217;-88
2022/02/15 07:42:18;;;;;;;28.20;19.38;;;7.10;99.90;;;;;;5095512;28;20203;-91
2022/02/15 07:44:44;;;;;;;28.50;21.05;;;7.50;99.90;;;;;;5110324;28;20168;-90
2022/02/15 07:47:10;;;;;;;32.83;21.40;;;7.80;99.90;;;;;;5093467;28;20254;-91
2022/02/15 07:49:36;;;;;;;28.35;20.95;;;7.90;99.90;;;;;;5099510;28;20440;-89
2022/02/15 07:52:03;;;;;;;30.92;21.15;;;7.90;99.90;;;;;;5103102;28;20283;-91
2022/02/15 07:54:29;;;;;;;30.42;21.88;;;8.00;99.90;;;;;;5093445;28;20214;-91
2022/02/15 07:56:55;;;;;;;30.80;21.42;;;8.00;99.90;;;;;;5076525;28;20172;-90
2022/02/15 07:59:21;;;;;;;30.80;22.20;;;8.10;99.90;;;;;;5096244;28;20176;-89
2022/02/15 08:01:47;;;;;;;30.30;20.70;;;8.20;99.90;;;;;;5110503;28;20179;-88
2022/02/15 08:04:13;;;;;;;28.07;18.80;;;8.40;99.90;;;;;;5099410;28;20888;-91
2022/02/15 08:06:43;;;;;;;27.13;19.75;;;8.70;99.90;;;;;;5109032;28;20177;-88
2022/02/15 08:09:15;;;;;;;24.95;17.48;;;9.10;99.90;;;;;;5074193;28;20226;-88
2022/02/15 08:11:43;;;;;;;26.75;19.10;;;9.50;99.90;;;;;;5069462;28;20542;-90
2022/02/15 08:14:09;;;;;;;23.15;17.60;;;10.10;99.90;;;;;;5089157;28;20277;-88
2022/02/15 08:16:35;;;;;;;23.52;19.27;;;10.80;99.90;;;;;;5093488;28;20184;-88
2022/02/15 08:19:01;;;;;;;26.97;19.43;;;11.50;99.90;;;;;;5101370;28;20200;-88
2022/02/15 08:21:27;;;;;;;26.03;19.00;;;12.20;99.90;;;;;;5096085;28;20536;-90
2022/02/15 08:23:52;;;;;;;21.40;16.03;;;12.70;99.90;;;;;;5098873;28;20696;-90
2022/02/15 08:26:19;;;;;;;22.00;16.47;;;13.20;99.90;;;;;;5129954;28;20188;-88
2022/02/15 08:28:46;;;;;;;24.75;17.23;;;13.60;99.90;;;;;;5093153;28;20233;-88
2022/02/15 08:31:12;;;;;;;21.33;16.85;;;13.90;99.90;;;;;;5094341;28;20176;-88
2022/02/15 08:33:38;;;;;;;22.40;16.00;;;14.10;99.90;;;;;;5100986;28;20228;-89
2022/02/15 08:36:05;;;;;;;19.00;15.60;;;14.40;99.90;;;;;;5092821;28;20409;-90
2022/02/15 08:38:33;;;;;;;14.40;10.80;;;14.50;99.90;;;;;;5093565;28;20459;-88
2022/02/15 08:41:03;;;;;;;19.90;15.70;;;14.70;99.90;;;;;;5089946;28;20444;-90
2022/02/15 08:43:29;;;;;;;19.33;15.67;;;14.90;99.90;;;;;;5115741;28;21066;-90
2022/02/15 08:45:55;;;;;;;19.53;16.87;;;15.40;99.90;;;;;;5094397;28;20428;-88
2022/02/15 08:48:21;;;;;;;21.80;16.47;;;15.80;99.90;;;;;;5091032;28;20797;-89
2022/02/15 08:50:47;;;;;;;21.03;12.50;;;16.30;99.90;;;;;;5090836;28;20395;-89
2022/02/15 08:53:13;;;;;;;18.40;15.90;;;16.50;99.90;;;;;;5086669;28;20474;-90
2022/02/15 08:55:39;;;;;;;17.03;13.80;;;16.60;99.90;;;;;;5091489;28;20188;-89
2022/02/15 08:58:05;;;;;;;24.23;16.27;;;16.80;99.90;;;;;;5092779;28;20224;-89
2022/02/15 09:00:33;;;;;;;18.33;15.67;;;17.00;99.90;;;;;;5099703;28;20391;-90
2022/02/15 09:02:59;;;;;;;17.33;14.77;;;17.10;99.90;;;;;;5092173;28;20452;-89
2022/02/15 09:05:31;;;;;;;16.13;13.10;;;17.30;99.90;;;;;;5094208;28;20424;-89
2022/02/15 09:07:58;;;;;;;20.70;15.53;;;17.40;99.90;;;;;;5088699;28;20236;-90
2022/02/15 09:10:23;;;;;;;17.53;14.77;;;17.70;99.90;;;;;;5085378;28;20478;-89
2022/02/15 09:12:49;;;;;;;19.30;15.13;;;17.90;99.90;;;;;;5091907;28;20897;-90
2022/02/15 09:15:15;;;;;;;18.30;16.30;;;18.00;99.90;;;;;;5094883;28;20180;-90
2022/02/15 09:17:41;;;;;;;17.53;14.57;;;18.00;99.90;;;;;;5096618;28;20646;-90
2022/02/15 09:20:12;;;;;;;16.70;13.03;;;18.00;99.90;;;;;;5096720;28;20176;-89
2022/02/15 09:22:39;;;;;;;20.17;14.23;;;18.10;99.90;;;;;;5096667;28;20521;-89
2022/02/15 09:25:05;;;;;;;18.53;15.47;;;18.20;99.90;;;;;;5094494;28;20937;-89
2022/02/15 09:27:31;;;;;;;17.73;14.60;;;18.30;99.90;;;;;;5092615;28;20497;-90
2022/02/15 09:29:57;;;;;;;16.97;14.67;;;18.40;99.50;;;;;;5101758;28;20421;-89
2022/02/15 09:32:23;;;;;;;18.50;14.30;;;18.50;99.30;;;;;;5089454;28;20212;-90
2022/02/15 09:34:49;;;;;;;16.50;14.03;;;18.50;99.40;;;;;;5091916;28;20177;-89
2022/02/15 09:37:14;;;;;;;17.57;12.17;;;18.70;98.60;;;;;;5093917;28;20449;-89
2022/02/15 09:39:41;;;;;;;17.23;13.03;;;18.70;97.90;;;;;;5123676;27;20650;-90
2022/02/15 09:42:08;;;;;;;16.73;14.03;;;18.60;97.90;;;;;;5104655;28;20197;-90
2022/02/15 09:44:34;;;;;;;16.50;13.63;;;18.70;97.70;;;;;;5108365;28;20746;-89
2022/02/15 09:47:00;;;;;;;17.17;14.70;;;18.80;97.60;;;;;;5098864;28;20474;-89
2022/02/15 09:52:12;;;;;;;16.10;13.40;;;18.80;97.30;;;;;;5094601;28;20215;-90
2022/02/15 09:54:39;;;;;;;16.80;14.30;;;18.80;97.80;;;;;;5095029;28;20403;-89
2022/02/15 09:57:06;;;;;;;20.50;16.27;;;18.90;97.40;;;;;;5095827;28;20869;-90
2022/02/15 09:59:32;;;;;;;19.23;13.10;;;19.10;97.50;;;;;;5101930;28;20426;-88
2022/02/15 10:02:01;;;;;;;18.47;14.83;;;19.20;96.50;;;;;;5089905;28;20516;-89
2022/02/15 10:04:33;;;;;;;22.57;13.77;;;19.10;97.00;;;;;;5106764;28;20400;-88
2022/02/15 10:06:59;;;;;;;22.80;18.17;;;19.10;96.40;;;;;;5093814;28;20420;-88
2022/02/15 10:09:27;;;;;;;21.83;15.83;;;19.10;97.00;;;;;;5091944;28;20415;-88
2022/02/15 10:12:01;;;;;;;23.37;18.80;;;19.10;96.60;;;;;;5094178;28;20465;-88
2022/02/15 10:14:27;;;;;;;19.87;15.37;;;19.10;96.70;;;;;;5081677;28;20559;-88
2022/02/15 10:16:52;;;;;;;20.13;15.20;;;18.80;96.50;;;;;;5091288;28;20541;-88
2022/02/15 10:19:23;;;;;;;16.57;14.40;;;18.60;96.90;;;;;;5092576;28;20262;-88
2022/02/15 10:21:54;;;;;;;18.90;14.93;;;18.30;97.40;;;;;;5088560;28;20177;-89
2022/02/15 10:24:20;;;;;;;17.83;13.83;;;18.00;97.50;;;;;;5077651;28;20436;-89
2022/02/15 10:27:11;;;;;;;15.43;13.73;;;17.70;97.80;;;;;;5097600;28;20963;-88
2022/02/15 10:29:40;;;;;;;14.97;13.37;;;17.60;98.10;;;;;;5090910;28;20944;-88
2022/02/15 10:32:11;;;;;;;18.17;13.37;;;17.40;98.20;;;;;;5073876;28;20484;-88
2022/02/15 10:34:56;;;;;;;15.23;13.00;;;17.20;97.90;;;;;;5093662;28;20428;-89
2022/02/15 10:37:27;;;;;;;15.47;13.40;;;17.00;98.50;;;;;;5075269;28;20499;-88
2022/02/15 10:40:01;;;;;;;16.63;12.23;;;16.90;98.80;;;;;;5088808;28;20444;-89
2022/02/15 10:42:29;;;;;;;14.67;12.57;;;16.80;99.00;;;;;;5074034;28;20482;-90
2022/02/15 10:45:05;;;;;;;16.23;12.30;;;16.60;99.50;;;;;;5090126;28;20456;-90
2022/02/15 10:47:39;;;;;;;15.17;12.17;;;16.60;99.30;;;;;;5096301;28;20452;-87
2022/02/15 10:50:14;;;;;;;14.10;11.00;;;16.60;99.80;;;;;;5090628;28;21011;-88
2022/02/15 10:52:40;;;;;;;13.63;10.93;;;16.50;99.50;;;;;;5092259;28;20468;-88
2022/02/15 10:55:08;;;;;;;15.43;12.93;;;16.40;99.50;;;;;;5076678;28;20456;-89
2022/02/15 10:57:36;;;;;;;12.93;10.40;;;16.30;99.90;;;;;;5110880;28;20472;-88
2022/02/15 11:00:05;;;;;;;14.23;10.70;;;16.20;99.60;;;;;;5090720;28;20447;-88
2022/02/15 11:02:31;;;;;;;13.77;10.20;;;16.10;99.00;;;;;;5075529;28;20973;-88
2022/02/15 11:05:01;;;;;;;18.53;12.33;;;16.10;99.70;;;;;;5076196;28;20417;-88
2022/02/15 11:07:28;;;;;;;13.43;10.80;;;16.00;99.90;;;;;;5073020;28;20223;-89
2022/02/15 11:09:58;;;;;;;12.10;8.17;;;16.10;99.80;;;;;;5093348;28;20459;-89
2022/02/15 11:12:32;;;;;;;13.27;11.00;;;16.30;99.50;;;;;;5082336;28;20476;-89
2022/02/15 11:15:04;;;;;;;15.83;10.70;;;16.40;99.30;;;;;;5091471;28;20428;-89
2022/02/15 11:17:31;;;;;;;14.47;10.70;;;16.40;99.60;;;;;;5092406;28;20471;-88
2022/02/15 11:20:18;;;;;;;17.20;13.43;;;16.40;99.80;;;;;;5088131;28;21119;-89
2022/02/15 11:22:47;;;;;;;11.67;10.27;;;16.40;99.90;;;;;;5088215;28;20532;-89
2022/02/15 11:25:13;;;;;;;11.77;10.47;;;16.50;99.80;;;;;;5089355;28;20458;-89
2022/02/15 11:27:39;;;;;;;11.83;10.57;;;16.50;99.40;;;;;;5093651;28;20498;-89
2022/02/15 11:30:14;;;;;;;13.53;10.43;;;16.60;99.50;;;;;;5097941;28;20184;-88
2022/02/15 11:32:43;;;;;;;12.17;10.60;;;16.70;99.10;;;;;;5098307;28;20734;-90
2022/02/15 11:35:18;;;;;;;12.23;10.70;;;16.70;99.50;;;;;;5092809;28;20433;-90
2022/02/15 11:37:44;;;;;;;11.40;9.20;;;16.70;99.70;;;;;;5092098;28;20911;-89
2022/02/15 11:40:16;;;;;;;10.80;9.43;;;16.70;99.30;;;;;;5092496;28;20406;-90
2022/02/15 11:42:51;;;;;;;12.80;9.70;;;16.80;98.80;;;;;;5094643;28;20218;-89
2022/02/15 11:45:28;;;;;;;9.87;7.23;;;16.90;99.00;;;;;;5096211;28;20432;-88
2022/02/15 11:48:14;;;;;;;11.40;8.20;;;17.00;97.90;;;;;;5082919;28;20460;-89
2022/02/15 11:50:44;;;;;;;10.23;7.67;;;17.00;97.90;;;;;;5082515;28;20429;-90
2022/02/15 11:53:11;;;;;;;9.90;8.67;;;17.00;97.40;;;;;;5088569;28;20477;-91
2022/02/15 11:55:38;;;;;;;11.70;7.80;;;17.00;97.90;;;;;;5101037;28;20417;-92
2022/02/15 11:58:08;;;;;;;9.43;7.47;;;17.10;97.60;;;;;;5123194;27;20440;-92
2022/02/15 12:00:35;;;;;;;10.80;8.40;;;17.10;97.40;;;;;;5088919;28;20427;-92
2022/02/15 12:03:02;;;;;;;10.67;7.67;;;17.10;98.00;;;;;;5088136;28;20461;-88
2022/02/15 12:05:30;;;;;;;9.30;7.87;;;17.30;97.50;;;;;;5084678;28;20524;-88
2022/02/15 12:07:57;;;;;;;18.03;7.97;;;17.40;96.50;;;;;;5093625;28;20456;-90
2022/02/15 12:10:27;;;;;;;9.30;7.33;;;17.40;96.30;;;;;;5093168;28;20527;-90
2022/02/15 12:12:52;;;;;;;9.13;7.40;;;17.30;96.60;;;;;;5090567;28;20484;-89
2022/02/15 12:15:19;;;;;;;8.27;6.93;;;17.30;96.60;;;;;;5091473;28;20972;-87
2022/02/15 12:17:46;;;;;;;11.27;7.37;;;17.30;97.10;;;;;;5115426;28;20254;-89
2022/02/15 12:20:17;;;;;;;12.63;8.17;;;17.30;96.40;;;;;;5088759;28;20957;-87
2022/02/15 12:22:55;;;;;;;8.10;7.30;;;17.40;96.20;;;;;;5094393;28;21014;-90
2022/02/15 12:25:21;;;;;;;9.13;6.23;;;17.40;95.80;;;;;;5100449;28;20431;-89
2022/02/15 12:27:47;;;;;;;8.73;6.70;;;17.30;95.70;;;;;;5094291;28;20475;-90
2022/02/15 12:30:15;;;;;;;7.60;6.80;;;17.30;95.70;;;;;;5095396;28;20684;-91
2022/02/15 12:32:45;;;;;;;8.80;6.90;;;17.20;96.10;;;;;;5089687;28;20560;-89
2022/02/15 12:35:11;;;;;;;9.10;6.57;;;17.20;95.60;;;;;;5090758;28;20423;-89
2022/02/15 12:37:38;;;;;;;8.60;7.27;;;17.30;95.90;;;;;;5089271;28;20427;-91
2022/02/15 12:40:06;;;;;;;9.17;7.53;;;17.30;95.70;;;;;;5094694;28;20610;-91
2022/02/15 12:42:34;;;;;;;11.20;8.20;;;17.30;95.60;;;;;;5104659;28;21094;-93
2022/02/15 12:45:08;;;;;;;10.63;8.13;;;17.30;95.60;;;;;;5090852;28;20784;-89